Time;durP1;ratioP1;P1;durP2;ratioP2;P2;SDS_P1;SDS_P2;PMS_P1;PMS_P2;Temp;Humidity;BMP_temperature;BMP_pressure;BME280_temperature;BME280_humidity;BME280_pressure;Samples;Min_cycle;Max_cycle;Signal;HPM_P1;HPM_P2
2021/12/06 00:00:12;;;;;;;35.43;23.65;;;;;;;-0.49;81.01;99306.42;1733535;80;21491;-60
2021/12/06 00:02:39;;;;;;;34.80;22.55;;;;;;;-0.47;81.07;99306.39;1743253;80;21030;-59
2021/12/06 00:05:09;;;;;;;38.28;23.77;;;;;;;-0.44;81.22;99309.83;1725840;81;21561;-61
2021/12/06 00:07:38;;;;;;;35.05;22.73;;;;;;;-0.41;81.28;99308.97;1733005;81;21773;-61
2021/12/06 00:10:08;;;;;;;33.05;23.42;;;;;;;-0.38;81.48;99305.50;1740742;81;21420;-61
2021/12/06 00:12:37;;;;;;;32.53;22.82;;;;;;;-0.38;81.66;99300.34;1728004;81;21565;-61
2021/12/06 00:15:05;;;;;;;32.90;22.65;;;;;;;-0.35;81.82;99302.48;1734496;81;21448;-61
2021/12/06 00:17:32;;;;;;;36.25;24.40;;;;;;;-0.32;81.70;99301.59;1738041;81;21550;-60
2021/12/06 00:19:59;;;;;;;32.35;22.62;;;;;;;-0.31;81.96;99300.30;1737403;81;22002;-60
2021/12/06 00:22:28;;;;;;;33.75;23.30;;;;;;;-0.28;81.77;99296.88;1732115;81;21494;-61
2021/12/06 00:24:56;;;;;;;34.20;22.27;;;;;;;-0.29;81.88;99297.72;1729565;81;21499;-60
2021/12/06 00:27:23;;;;;;;34.53;23.07;;;;;;;-0.31;81.81;99302.04;1741011;80;21613;-61
2021/12/06 00:29:50;;;;;;;33.13;22.95;;;;;;;-0.30;81.90;99302.45;1729651;81;21558;-61
2021/12/06 00:32:17;;;;;;;31.25;22.95;;;;;;;-0.31;81.95;99301.59;1737786;81;21779;-61
2021/12/06 00:34:44;;;;;;;35.20;23.30;;;;;;;-0.27;81.86;99308.47;1740460;81;21641;-61
2021/12/06 00:39:55;;;;;;;33.33;22.50;;;;;;;-0.14;81.94;99300.23;1728140;81;22282;-61
2021/12/06 00:42:24;;;;;;;35.63;23.60;;;;;;;-0.08;81.91;99293.73;1735227;81;21704;-61
2021/12/06 00:44:52;;;;;;;34.65;23.92;;;;;;;-0.09;81.94;99286.86;1724593;81;21865;-59
2021/12/06 00:47:18;;;;;;;;;;;;;;;-0.10;82.05;99292.03;1735221;81;21593;-61
2021/12/06 00:49:47;;;;;;;36.73;24.10;;;;;;;-0.08;82.02;99285.13;1739362;80;20435;-61
2021/12/06 00:52:15;;;;;;;35.00;23.25;;;;;;;-0.07;81.79;99286.41;1731234;81;26952;-60
2021/12/06 00:54:43;;;;;;;35.90;23.18;;;;;;;-0.09;81.83;99286.86;1723627;81;21482;-60
2021/12/06 00:57:12;;;;;;;34.05;22.95;;;;;;;-0.10;81.88;99284.28;1744330;81;22026;-61
2021/12/06 00:59:39;;;;;;;28.15;20.12;;;;;;;-0.09;81.97;99284.72;1735251;81;21487;-60
2021/12/06 01:02:06;;;;;;;31.97;22.45;;;;;;;0.02;81.94;99280.34;1733097;81;21428;-60
2021/12/06 01:04:36;;;;;;;29.05;21.60;;;;;;;0.07;81.90;99287.62;1735434;81;21529;-59
2021/12/06 01:07:04;;;;;;;30.97;21.52;;;;;;;0.03;81.92;99279.46;1743746;81;21463;-60
2021/12/06 01:09:31;;;;;;;28.73;21.10;;;;;;;0.01;81.99;99277.77;1721415;81;21786;-61
2021/12/06 01:11:58;;;;;;;27.83;20.33;;;;;;;-0.01;81.73;99280.35;1733167;81;20930;-60
2021/12/06 01:14:25;;;;;;;31.63;20.83;;;;;;;-0.01;81.73;99280.35;1740767;81;21895;-59
2021/12/06 01:16:52;;;;;;;27.00;19.50;;;;;;;-0.02;81.99;99284.67;1731476;81;21660;-60
2021/12/06 01:19:20;;;;;;;31.73;20.97;;;;;;;0.05;82.01;99281.59;1727184;81;21566;-59
2021/12/06 01:22:02;;;;;;;27.62;19.67;;;;;;;0.12;81.90;99273.39;1735003;81;21843;-59
2021/12/06 01:24:20;;;;;;;30.52;21.55;;;;;;;0.07;82.18;99268.23;1742969;81;21014;-59
2021/12/06 01:27:24;;;;;;;29.87;20.20;;;;;;;0.06;82.36;99267.82;1732081;81;21374;-60
2021/12/06 01:32:15;;;;;;;32.23;21.90;;;;;;;0.13;82.63;99263.05;1740834;81;21428;-60
2021/12/06 01:40:04;;;;;;;34.10;23.02;;;;;;;0.21;82.87;99246.18;1712364;82;21507;-58
2021/12/06 01:42:31;;;;;;;33.42;22.42;;;;;;;0.19;82.78;99242.31;1727607;81;21416;-59
2021/12/06 01:44:59;;;;;;;31.70;21.52;;;;;;;0.19;82.67;99239.72;1712987;81;26851;-61
2021/12/06 01:47:30;;;;;;;31.95;22.90;;;;;;;0.26;82.78;99240.52;1721222;81;21399;-61
2021/12/06 01:50:06;;;;;;;32.38;22.85;;;;;;;0.37;82.63;99230.09;1713812;81;21428;-60
2021/12/06 01:52:38;;;;;;;;;;;;;;;0.31;82.77;99227.56;1720084;81;21495;-61
2021/12/06 01:55:07;;;;;;;28.07;20.05;;;;;;;0.25;82.86;99229.77;1710973;82;20501;-59
2021/12/06 01:57:34;;;;;;;30.00;21.25;;;;;;;0.19;82.98;99238.87;1729712;81;21585;-59
2021/12/06 02:00:05;;;;;;;28.97;20.73;;;;;;;0.13;83.26;99230.72;1718959;82;22052;-61
2021/12/06 02:02:34;;;;;;;27.15;19.60;;;;;;;0.25;83.19;99232.80;1726386;82;21585;-61
2021/12/06 02:05:01;;;;;;;30.12;21.75;;;;;;;0.32;83.13;99234.03;1722121;82;28843;-60
2021/12/06 02:07:30;;;;;;;31.75;22.17;;;;;;;0.34;83.02;99240.05;1711110;81;21452;-60
2021/12/06 02:09:58;;;;;;;;;;;;;;;0.33;83.02;99233.14;1730618;82;21522;-60
2021/12/06 02:12:29;;;;;;;29.35;20.37;;;;;;;0.32;83.04;99235.32;1718400;82;21861;-60
2021/12/06 02:15:05;;;;;;;32.38;20.85;;;;;;;0.32;83.05;99238.31;1720289;81;21089;-60
2021/12/06 02:17:36;;;;;;;30.10;21.33;;;;;;;0.42;83.06;99240.42;1720872;81;21546;-60
2021/12/06 02:20:04;;;;;;;31.02;22.13;;;;;;;0.48;82.90;99240.36;1715462;81;21483;-61
2021/12/06 02:22:32;;;;;;;29.57;21.48;;;;;;;0.45;82.95;99228.73;1718495;80;21006;-60
2021/12/06 02:24:59;;;;;;;32.17;22.32;;;;;;;0.43;82.94;99228.75;1723143;82;22093;-60
2021/12/06 02:27:28;;;;;;;32.28;22.07;;;;;;;0.40;83.16;99227.50;1726412;82;21547;-60
2021/12/06 02:29:58;;;;;;;30.08;21.87;;;;;;;0.43;83.26;99230.48;1724462;82;21633;-60
2021/12/06 02:32:26;;;;;;;30.00;21.77;;;;;;;0.53;83.08;99227.81;1726635;82;21385;-59
2021/12/06 02:34:54;;;;;;;;;;;;;;;0.60;82.93;99227.75;1721233;80;21533;-60
2021/12/06 02:37:29;;;;;;;30.85;22.73;;;;;;;0.55;83.14;99232.98;1736472;81;20430;-60
2021/12/06 02:39:58;;;;;;;30.45;22.67;;;;;;;0.52;83.24;99238.17;1726622;81;21712;-59
2021/12/06 02:42:25;;;;;;;28.42;20.90;;;;;;;0.48;83.11;99231.31;1737243;81;21423;-61
2021/12/06 02:44:53;;;;;;;28.42;20.08;;;;;;;0.47;83.21;99231.75;1737667;81;21566;-60
2021/12/06 02:47:20;;;;;;;25.52;18.92;;;;;;;0.53;83.32;99228.26;1730767;81;21546;-60
2021/12/06 02:49:47;;;;;;;25.72;19.95;;;;;;;0.58;83.61;99227.76;1743587;81;22054;-60
2021/12/06 02:52:15;;;;;;;25.20;19.62;;;;;;;0.56;83.41;99232.09;1739596;81;21092;-59
2021/12/06 02:54:43;;;;;;;24.95;20.10;;;;;;;0.53;83.69;99227.81;1731257;80;21427;-60
2021/12/06 02:59:44;;;;;;;25.50;19.67;;;;;;;0.58;83.69;99229.05;1716438;81;21424;-60
2021/12/06 03:02:14;;;;;;;28.07;21.57;;;;;;;0.68;83.62;99225.94;1733596;81;21819;-59
2021/12/06 03:04:42;;;;;;;28.65;21.40;;;;;;;0.78;83.42;99230.17;1728088;81;21418;-60
2021/12/06 03:07:09;;;;;;;29.43;22.27;;;;;;;0.77;83.29;99229.73;1739978;81;21446;-59
2021/12/06 03:09:39;;;;;;;27.98;20.97;;;;;;;0.74;83.27;99232.38;1745883;81;21480;-60
2021/12/06 03:12:17;;;;;;;28.55;20.97;;;;;;;0.74;83.21;99228.05;1734676;81;21416;-60
2021/12/06 03:14:48;;;;;;;24.77;20.05;;;;;;;0.71;83.14;99228.06;1728423;81;21760;-59
2021/12/06 03:17:19;;;;;;;26.55;20.68;;;;;;;0.77;83.01;99238.37;1735792;80;21500;-60
2021/12/06 03:19:47;;;;;;;29.20;21.37;;;;;;;0.79;83.14;99239.63;1738693;81;21483;-60
2021/12/06 03:22:15;;;;;;;26.10;20.12;;;;;;;0.77;83.20;99242.27;1740064;81;21436;-61
2021/12/06 03:24:43;;;;;;;28.55;20.90;;;;;;;0.74;83.24;99243.58;1735323;81;21467;-60
2021/12/06 03:27:11;;;;;;;25.40;19.87;;;;;;;0.72;83.30;99239.30;1734054;81;21863;-61
2021/12/06 03:29:38;;;;;;;;;;;;;;;0.72;83.34;99238.85;1725508;81;21506;-59
2021/12/06 03:32:06;;;;;;;28.13;20.37;;;;;;;0.81;83.26;99241.80;1739903;81;20407;-60
2021/12/06 03:34:33;;;;;;;26.20;19.87;;;;;;;0.84;83.20;99250.81;1740241;80;21601;-60
2021/12/06 03:37:03;;;;;;;25.52;19.23;;;;;;;0.77;83.65;99248.73;1741669;81;21643;-61
2021/12/06 03:39:35;;;;;;;26.85;21.20;;;;;;;0.74;83.29;99249.19;1730372;81;21644;-59
2021/12/06 03:42:06;;;;;;;27.10;20.68;;;;;;;0.72;83.28;99247.06;1735218;81;21633;-60
2021/12/06 03:44:33;;;;;;;27.77;19.15;;;;;;;0.74;83.24;99255.22;1743865;80;21582;-61
2021/12/06 03:47:06;;;;;;;27.07;20.08;;;;;;;0.88;83.09;99251.64;1730340;81;21495;-59
2021/12/06 03:49:35;;;;;;;26.75;21.48;;;;;;;0.97;82.90;99248.96;1732341;81;21539;-60
2021/12/06 03:52:03;;;;;;;26.48;20.72;;;;;;;0.94;82.69;99250.27;1727851;81;21772;-60
2021/12/06 03:54:30;;;;;;;27.45;21.55;;;;;;;0.90;82.77;99249.89;1700320;83;21514;-60
2021/12/06 03:56:57;;;;;;;27.40;19.67;;;;;;;0.88;82.76;99247.31;1669701;84;21628;-60
2021/12/06 03:59:25;;;;;;;28.52;20.17;;;;;;;0.88;82.70;99243.88;1672694;84;28615;-61
2021/12/06 04:01:53;;;;;;;26.20;20.95;;;;;;;0.98;82.58;99236.45;1684785;84;26450;-59
2021/12/06 04:04:22;;;;;;;26.50;20.48;;;;;;;1.04;82.45;99230.35;1681584;82;22294;-59
2021/12/06 04:06:49;;;;;;;26.80;20.77;;;;;;;1.02;82.33;99233.36;1675933;84;21566;-60
2021/12/06 04:09:17;;;;;;;26.35;20.65;;;;;;;1.00;82.35;99229.52;1672253;84;20977;-60
2021/12/06 04:11:44;;;;;;;32.70;23.83;;;;;;;0.97;82.43;99228.25;1676274;84;21473;-67
2021/12/06 04:14:11;;;;;;;32.60;23.25;;;;;;;0.96;82.31;99232.99;1680022;84;21484;-62
2021/12/06 04:16:38;;;;;;;32.80;23.20;;;;;;;1.02;82.27;99222.59;1673321;84;21554;-62
2021/12/06 04:19:06;;;;;;;33.30;23.40;;;;;;;1.08;82.07;99220.38;1669170;84;21697;-64
2021/12/06 04:21:34;;;;;;;33.88;23.35;;;;;;;1.07;82.08;99227.27;1675805;84;21649;-62
2021/12/06 04:24:01;;;;;;;;;;;;;;;1.03;82.14;99225.59;1674218;84;21458;-61
2021/12/06 04:26:28;;;;;;;31.20;22.90;;;;;;;0.99;82.20;99226.95;1678086;82;20448;-62
2021/12/06 04:29:00;;;;;;;30.40;21.30;;;;;;;0.89;82.42;99231.37;1671459;84;21774;-62
2021/12/06 04:31:31;;;;;;;24.92;19.55;;;;;;;0.90;82.51;99232.62;1676586;84;21067;-62
2021/12/06 04:33:59;;;;;;;22.27;17.30;;;;;;;1.02;82.31;99231.66;1679782;83;21562;-61
2021/12/06 04:36:26;;;;;;;20.65;16.75;;;;;;;1.11;82.23;99235.86;1703065;83;21411;-60
2021/12/06 04:38:53;;;;;;;22.05;17.92;;;;;;;1.08;82.24;99239.35;1670611;84;21591;-60
2021/12/06 04:41:20;;;;;;;23.50;17.37;;;;;;;1.04;82.25;99246.73;1678977;84;22135;-60
2021/12/06 04:43:47;;;;;;;22.40;16.85;;;;;;;1.04;82.23;99235.09;1694084;83;21062;-62
2021/12/06 04:46:15;;;;;;;;;;;;;;;1.05;82.20;99238.52;1687342;84;21420;-61
2021/12/06 04:48:42;;;;;;;19.05;16.27;;;;;;;1.14;81.98;99241.86;1681941;84;20469;-61
2021/12/06 04:51:09;;;;;;;22.65;17.05;;;;;;;1.16;82.01;99234.94;1673299;84;21638;-61
2021/12/06 04:53:37;;;;;;;18.82;15.38;;;;;;;1.10;81.90;99236.30;1686259;84;21854;-60
2021/12/06 04:56:31;;;;;;;20.45;16.40;;;;;;;1.04;81.98;99240.27;1679783;82;21008;-60
2021/12/06 04:59:30;;;;;;;21.42;16.62;;;;;;;1.04;82.11;99237.67;1685956;83;21617;-60
2021/12/06 05:02:00;;;;;;;20.10;15.93;;;;;;;0.98;81.99;99241.63;1682381;83;21617;-60
2021/12/06 05:04:33;;;;;;;17.80;14.75;;;;;;;0.99;82.03;99246.36;1662868;84;21453;-60
2021/12/06 05:07:09;;;;;;;17.50;15.20;;;;;;;1.06;82.06;99250.61;1681796;83;21798;-60
2021/12/06 05:09:38;;;;;;;20.70;16.12;;;;;;;1.07;82.10;99251.86;1702316;82;20955;-61
2021/12/06 05:12:07;;;;;;;20.27;16.15;;;;;;;1.03;82.48;99254.52;1676932;84;21539;-61
2021/12/06 05:14:34;;;;;;;19.85;16.05;;;;;;;0.95;82.23;99246.38;1681038;84;21519;-60
2021/12/06 05:17:01;;;;;;;20.43;15.75;;;;;;;0.92;82.37;99252.91;1685836;84;21614;-61
2021/12/06 05:19:28;;;;;;;20.23;16.07;;;;;;;0.94;82.38;99251.16;1686859;84;21801;-60
2021/12/06 05:21:55;;;;;;;19.37;15.25;;;;;;;1.02;82.24;99251.08;1678582;84;21500;-60
2021/12/06 05:24:22;;;;;;;21.93;17.03;;;;;;;1.06;82.10;99248.88;1681646;84;21460;-59
2021/12/06 05:26:50;;;;;;;;;;;;;;;1.02;82.21;99257.55;1689066;84;21621;-60
2021/12/06 05:29:24;;;;;;;19.67;14.90;;;;;;;0.99;82.37;99255.42;1680459;84;26796;-60
2021/12/06 05:31:56;;;;;;;23.12;15.75;;;;;;;0.96;82.61;99262.35;1665802;84;22633;-60
2021/12/06 05:34:27;;;;;;;18.92;15.53;;;;;;;0.93;82.44;99260.23;1690034;84;20951;-61
2021/12/06 05:36:49;;;;;;;19.40;15.28;;;;;;;0.96;82.24;99266.65;1676742;84;21527;-60
2021/12/06 05:39:16;;;;;;;21.57;15.60;;;;;;;1.04;82.05;99266.16;1654867;83;21037;-59
2021/12/06 05:41:43;;;;;;;20.82;16.02;;;;;;;1.08;81.98;99266.54;1638810;84;21584;-60
2021/12/06 05:44:10;;;;;;;20.90;17.30;;;;;;;1.04;82.00;99268.75;1648161;84;22063;-59
2021/12/06 05:46:37;;;;;;;22.30;16.50;;;;;;;1.00;81.97;99269.66;1641157;84;21558;-59
2021/12/06 05:49:04;;;;;;;21.77;15.80;;;;;;;0.97;82.15;99262.75;1633950;84;21025;-60
2021/12/06 05:51:31;;;;;;;20.83;15.97;;;;;;;0.99;81.97;99269.22;1641391;84;21590;-60
2021/12/06 05:53:58;;;;;;;20.72;15.90;;;;;;;1.07;81.87;99266.10;1638764;84;21116;-60
2021/12/06 05:56:25;;;;;;;23.07;16.20;;;;;;;1.12;81.75;99262.19;1637994;86;22019;-60
2021/12/06 05:58:53;;;;;;;25.48;16.80;;;;;;;1.10;81.95;99263.49;1646024;84;21541;-60
2021/12/06 06:01:23;;;;;;;24.40;17.80;;;;;;;1.05;81.93;99267.00;1640994;84;21501;-60
2021/12/06 06:03:48;;;;;;;20.57;16.52;;;;;;;1.00;82.07;99270.95;1642497;84;21577;-61
2021/12/06 06:06:15;;;;;;;22.30;16.40;;;;;;;0.99;82.12;99266.63;1642039;84;21566;-60
2021/12/06 06:08:44;;;;;;;21.45;16.75;;;;;;;1.00;82.05;99269.66;1646927;84;21864;-60
2021/12/06 06:11:11;;;;;;;23.42;17.20;;;;;;;1.10;82.04;99266.09;1637548;85;21076;-59
2021/12/06 06:13:38;;;;;;;22.07;17.00;;;;;;;1.16;81.83;99266.01;1632208;85;21581;-59
2021/12/06 06:16:05;;;;;;;26.65;18.90;;;;;;;1.18;81.84;99267.74;1641756;85;21451;-61
2021/12/06 06:18:32;;;;;;;25.02;18.07;;;;;;;1.14;81.79;99268.20;1632902;85;21509;-59
2021/12/06 06:21:00;;;;;;;27.30;18.10;;;;;;;1.10;81.74;99277.73;1640662;85;21876;-60
2021/12/06 06:23:28;;;;;;;21.52;16.35;;;;;;;1.12;81.76;99279.87;1633343;85;20974;-61
2021/12/06 06:25:56;;;;;;;26.85;18.05;;;;;;;1.20;81.68;99282.83;1631611;85;21504;-60
2021/12/06 06:28:23;;;;;;;23.90;17.37;;;;;;;1.24;81.60;99280.17;1630919;85;21475;-61
2021/12/06 06:30:50;;;;;;;27.53;19.00;;;;;;;1.22;81.56;99278.48;1635041;85;21642;-60
2021/12/06 06:33:17;;;;;;;23.75;18.35;;;;;;;1.16;81.77;99278.95;1638257;86;21896;-60
2021/12/06 06:35:44;;;;;;;28.87;19.32;;;;;;;1.14;81.76;99274.23;1631860;86;20987;-60
2021/12/06 06:38:11;;;;;;;26.37;18.57;;;;;;;1.14;82.10;99276.83;1642380;84;21760;-59
2021/12/06 06:40:38;;;;;;;28.07;19.92;;;;;;;1.21;81.99;99269.02;1664602;84;21554;-60
2021/12/06 06:43:05;;;;;;;27.65;18.98;;;;;;;1.25;81.85;99273.28;1677218;83;20930;-60
2021/12/06 06:45:32;;;;;;;26.70;19.30;;;;;;;1.22;81.83;99284.51;1685521;83;21821;-61
2021/12/06 06:47:59;;;;;;;31.23;20.43;;;;;;;1.21;81.91;99280.22;1667476;84;21407;-60
2021/12/06 06:50:26;;;;;;;28.77;19.57;;;;;;;1.19;82.13;99288.86;1695129;82;21602;-60
2021/12/06 06:52:53;;;;;;;27.75;18.62;;;;;;;1.21;82.02;99291.87;1685050;84;21511;-60
2021/12/06 06:55:21;;;;;;;26.53;19.53;;;;;;;1.33;81.83;99285.70;1679557;84;21559;-60
2021/12/06 06:57:48;;;;;;;28.25;19.25;;;;;;;1.36;82.07;99289.12;1685701;82;21796;-61
2021/12/06 07:00:20;;;;;;;27.75;18.95;;;;;;;1.34;81.91;99288.28;1676038;84;28757;-62
2021/12/06 07:02:47;;;;;;;28.07;18.98;;;;;;;1.32;82.19;99283.55;1720096;80;21129;-60
2021/12/06 07:05:14;;;;;;;28.25;18.50;;;;;;;1.29;82.88;99291.34;1725468;82;21432;-58
2021/12/06 07:07:41;;;;;;;25.95;19.00;;;;;;;1.29;82.36;99280.98;1721434;81;21510;-58
2021/12/06 07:10:09;;;;;;;33.70;19.60;;;;;;;1.41;82.50;99284.31;1733592;80;21869;-61
2021/12/06 07:12:44;;;;;;;30.25;21.42;;;;;;;1.46;82.38;99288.57;1708085;81;20987;-59
2021/12/06 07:15:07;;;;;;;28.60;20.40;;;;;;;1.45;82.22;99280.81;1718495;82;21544;-58
2021/12/06 07:17:33;;;;;;;;;;;;;;;1.44;82.05;99290.33;1721822;81;21558;-58
2021/12/06 07:20:01;;;;;;;30.00;19.93;;;;;;;1.40;83.29;99289.09;1719615;81;20432;-58
2021/12/06 07:22:28;;;;;;;27.55;18.77;;;;;;;1.34;82.78;99279.66;1713728;82;21822;-58
2021/12/06 07:24:54;;;;;;;27.63;19.30;;;;;;;1.35;83.00;99286.09;1715024;82;21552;-58
2021/12/06 07:27:21;;;;;;;29.25;20.77;;;;;;;1.47;82.52;99287.70;1719560;81;21073;-58
2021/12/06 07:29:48;;;;;;;28.47;19.33;;;;;;;1.53;82.29;99285.04;1720729;81;21042;-58
2021/12/06 07:32:15;;;;;;;34.70;20.23;;;;;;;1.51;82.42;99289.38;1712232;81;21456;-60
2021/12/06 07:34:42;;;;;;;34.43;20.72;;;;;;;1.46;82.55;99296.79;1716478;82;21551;-59
2021/12/06 07:37:09;;;;;;;27.60;19.07;;;;;;;1.40;83.00;99291.69;1718692;81;21585;-59
2021/12/06 07:39:36;;;;;;;27.20;18.92;;;;;;;1.41;82.81;99294.23;1716055;82;21496;-58
2021/12/06 07:42:03;;;;;;;29.95;20.68;;;;;;;1.55;82.54;99294.94;1692459;83;21490;-60
2021/12/06 07:44:31;;;;;;;;;;;;;;;1.61;82.37;99294.02;1728646;82;21465;-58
2021/12/06 07:46:58;;;;;;;30.43;20.62;;;;;;;1.59;82.82;99304.84;1730570;80;21149;-60
2021/12/06 07:49:24;;;;;;;35.20;22.70;;;;;;;1.52;82.64;99300.15;1724409;81;21069;-59
2021/12/06 08:04:02;;;;;;;35.38;23.87;;;;;;;1.61;83.27;99322.52;1734487;80;21500;-59
2021/12/06 08:06:29;;;;;;;34.88;22.82;;;;;;;1.59;82.65;99326.86;1725656;81;21543;-59
2021/12/06 08:08:56;;;;;;;31.33;21.23;;;;;;;1.63;82.73;99330.28;1725868;81;21629;-60
2021/12/06 08:11:25;;;;;;;;;;;;;;;1.71;82.47;99318.97;1727808;81;21801;-58
2021/12/06 08:13:54;;;;;;;39.03;23.87;;;;;;;1.73;82.53;99322.80;1730243;80;20682;-60
2021/12/06 08:16:27;;;;;;;39.05;25.12;;;;;;;1.69;82.52;99323.72;1729412;80;21559;-59
2021/12/06 08:18:54;;;;;;;40.75;25.27;;;;;;;1.68;82.46;99317.69;1724731;81;21155;-60
2021/12/06 08:21:22;;;;;;;39.10;24.53;;;;;;;1.70;82.82;99322.41;1725153;80;21494;-61
2021/12/06 08:23:49;;;;;;;;;;;;;;;1.72;82.34;99323.25;1726888;80;22578;-59
2021/12/06 08:26:18;;;;;;;40.23;25.92;;;;;;;1.79;82.63;99320.16;1723608;80;20500;-60
2021/12/06 08:28:45;;;;;;;40.10;25.35;;;;;;;1.82;82.49;99313.63;1721136;80;21705;-60
2021/12/06 08:31:13;;;;;;;44.83;26.52;;;;;;;1.80;82.88;99310.20;1734830;80;21422;-59
2021/12/06 08:33:41;;;;;;;41.77;26.68;;;;;;;1.73;83.43;99305.95;1727341;80;21664;-62
2021/12/06 08:36:09;;;;;;;;;;;;;;;1.69;82.79;99311.61;1728473;80;21878;-59
2021/12/06 08:38:36;;;;;;;42.75;26.05;;;;;;;1.68;83.08;99300.00;1722164;80;28708;-59
2021/12/06 08:41:06;;;;;;;44.80;25.70;;;;;;;1.67;82.86;99293.08;1716319;80;21572;-59
2021/12/06 08:43:33;;;;;;;43.78;27.27;;;;;;;1.77;82.61;99288.19;1722865;80;21657;-59
2021/12/06 08:46:05;;;;;;;40.13;25.70;;;;;;;1.87;82.59;99280.73;1717609;80;21606;-57
2021/12/06 08:48:34;;;;;;;42.25;25.35;;;;;;;1.90;82.40;99286.30;1716220;80;21843;-58
2021/12/06 08:51:05;;;;;;;45.55;26.00;;;;;;;1.86;82.44;99283.33;1712858;81;21598;-59
2021/12/06 08:53:32;;;;;;;38.10;24.52;;;;;;;1.85;82.57;99277.75;1726811;80;21525;-59
2021/12/06 08:56:01;;;;;;;35.25;23.18;;;;;;;1.82;83.05;99273.44;1715256;80;22177;-59
2021/12/06 08:58:28;;;;;;;36.75;24.72;;;;;;;1.90;83.01;99270.74;1717797;80;21563;-59
2021/12/06 09:00:55;;;;;;;35.93;24.73;;;;;;;1.98;82.92;99266.33;1719955;80;21801;-60
2021/12/06 09:03:22;;;;;;;35.53;22.60;;;;;;;1.94;82.61;99255.14;1719394;80;21529;-62
2021/12/06 09:05:51;;;;;;;36.13;23.55;;;;;;;1.93;82.78;99253.86;1726116;80;21599;-58
2021/12/06 09:08:18;;;;;;;38.15;23.30;;;;;;;1.88;83.15;99251.31;1715692;82;21561;-61
2021/12/06 09:10:49;;;;;;;35.35;22.65;;;;;;;1.87;82.99;99252.20;1718015;82;21626;-59
2021/12/06 09:13:15;;;;;;;34.13;22.58;;;;;;;1.93;82.88;99261.19;1714243;80;21819;-59
2021/12/06 09:15:41;;;;;;;40.88;25.57;;;;;;;2.03;83.94;99256.72;1723223;80;21616;-60
2021/12/06 09:18:09;;;;;;;39.45;26.17;;;;;;;1.95;83.50;99247.77;1716497;80;21629;-58
2021/12/06 09:20:38;;;;;;;35.70;24.80;;;;;;;1.95;83.50;99247.77;1716857;80;21531;-59
2021/12/06 09:23:06;;;;;;;39.53;24.45;;;;;;;1.93;83.03;99250.81;1714479;82;21613;-60
2021/12/06 09:25:33;;;;;;;40.80;25.32;;;;;;;1.90;83.19;99248.28;1717424;82;25744;-58
2021/12/06 09:28:02;;;;;;;40.67;25.85;;;;;;;1.92;83.10;99238.75;1717982;80;21549;-63
2021/12/06 09:30:32;;;;;;;38.38;25.00;;;;;;;2.01;82.84;99242.92;1717762;80;21567;-60
2021/12/06 09:33:02;;;;;;;44.65;26.95;;;;;;;2.01;82.87;99238.19;1711034;82;21500;-63
2021/12/06 09:35:30;;;;;;;34.78;24.02;;;;;;;1.94;83.23;99235.69;1715352;80;21497;-59
2021/12/06 09:37:58;;;;;;;37.50;24.43;;;;;;;1.90;82.62;99235.33;1711227;82;21755;-59
2021/12/06 09:40:28;;;;;;;36.98;24.92;;;;;;;1.87;82.68;99236.66;1716180;80;21527;-58
2021/12/06 09:42:55;;;;;;;39.98;25.57;;;;;;;1.89;82.39;99238.78;1714028;80;21570;-59
2021/12/06 09:45:25;;;;;;;43.00;26.35;;;;;;;1.99;82.31;99230.42;1720996;80;22248;-59
2021/12/06 09:47:53;;;;;;;39.13;27.05;;;;;;;2.07;82.07;99229.02;1714008;82;21578;-59
2021/12/06 09:50:27;;;;;;;40.48;27.40;;;;;;;2.03;82.11;99219.57;1730322;80;21518;-59
2021/12/06 09:52:57;;;;;;;42.00;25.57;;;;;;;2.00;82.07;99221.78;1726809;80;21487;-59
2021/12/06 09:55:26;;;;;;;40.83;25.17;;;;;;;1.95;82.34;99227.47;1718320;80;20947;-59
2021/12/06 09:57:53;;;;;;;38.48;25.10;;;;;;;1.94;82.39;99214.07;1730690;81;21044;-59
2021/12/06 10:00:21;;;;;;;42.00;25.72;;;;;;;2.03;82.31;99216.98;1730209;80;21026;-59
2021/12/06 10:02:49;;;;;;;39.70;24.52;;;;;;;2.06;82.33;99211.75;1733168;80;21843;-58
2021/12/06 10:05:16;;;;;;;38.83;26.15;;;;;;;2.01;82.61;99210.51;1699128;82;21423;-59
2021/12/06 10:07:43;;;;;;;42.95;23.92;;;;;;;1.97;83.28;99202.81;1715088;81;21446;-60
2021/12/06 10:10:11;;;;;;;36.20;24.05;;;;;;;1.97;83.28;99202.81;1712763;80;21561;-60
2021/12/06 10:12:41;;;;;;;32.98;21.93;;;;;;;1.96;82.96;99200.67;1694255;82;21573;-59
2021/12/06 10:15:10;;;;;;;37.05;22.67;;;;;;;2.08;83.28;99199.63;1724356;80;22117;-60
2021/12/06 10:17:36;;;;;;;34.88;23.22;;;;;;;2.11;82.78;99200.84;1731058;80;21427;-60
2021/12/06 10:20:06;;;;;;;32.97;22.93;;;;;;;2.11;82.65;99190.47;1723711;80;21437;-60
2021/12/06 10:22:33;;;;;;;34.75;21.70;;;;;;;2.07;82.98;99183.63;1733902;80;22091;-59
2021/12/06 10:25:00;;;;;;;30.15;20.23;;;;;;;2.05;82.78;99187.53;1716376;80;21471;-59
2021/12/06 10:27:28;;;;;;;27.45;19.85;;;;;;;2.04;82.99;99181.95;1734741;80;22082;-59
2021/12/06 10:30:03;;;;;;;36.20;21.20;;;;;;;2.14;82.98;99179.61;1720839;80;21608;-59
2021/12/06 10:32:34;;;;;;;28.40;19.35;;;;;;;2.17;82.93;99183.92;1744838;80;21480;-62
2021/12/06 10:35:06;;;;;;;26.15;18.98;;;;;;;2.09;84.02;99185.75;1731477;80;21504;-59
2021/12/06 10:37:45;;;;;;;28.27;19.37;;;;;;;2.05;83.47;99186.23;1726093;81;21464;-58
2021/12/06 10:40:13;;;;;;;25.30;17.70;;;;;;;2.01;83.36;99189.77;1726064;80;21932;-59
2021/12/06 10:42:42;;;;;;;32.33;17.67;;;;;;;2.03;83.19;99191.05;1719293;80;21571;-58
2021/12/06 10:45:14;;;;;;;26.87;19.02;;;;;;;2.15;83.23;99199.95;1722190;80;21514;-57
2021/12/06 10:47:42;;;;;;;25.30;17.32;;;;;;;2.17;83.30;99191.70;1724007;80;21164;-57
2021/12/06 10:50:17;;;;;;;42.75;17.52;;;;;;;2.14;83.00;99193.87;1734501;80;21563;-59
2021/12/06 10:52:55;;;;;;;25.43;15.30;;;;;;;2.12;82.88;99193.50;1718588;82;21547;-59
2021/12/06 10:55:26;;;;;;;23.67;16.02;;;;;;;2.05;83.03;99191.42;1719374;82;21441;-59
2021/12/06 10:58:00;;;;;;;22.85;14.43;;;;;;;2.03;83.12;99186.70;1721830;82;21558;-56
2021/12/06 11:00:44;;;;;;;23.20;14.78;;;;;;;2.11;83.11;99183.58;1735006;80;21427;-57
2021/12/06 11:03:26;;;;;;;28.07;15.03;;;;;;;2.11;82.98;99188.76;1718329;82;21042;-56
2021/12/06 11:06:08;;;;;;;24.27;14.47;;;;;;;2.03;83.29;99184.11;1727955;81;21542;-58
2021/12/06 11:08:35;;;;;;;21.17;15.15;;;;;;;1.91;83.63;99187.75;1717991;81;21419;-56
2021/12/06 11:11:10;;;;;;;19.27;15.15;;;;;;;1.85;84.00;99183.97;1719192;81;21613;-57
2021/12/06 11:13:45;;;;;;;20.90;14.87;;;;;;;1.85;83.99;99186.56;1722729;81;21503;-56
2021/12/06 11:16:20;;;;;;;20.32;14.55;;;;;;;1.93;84.31;99190.33;1728155;80;21535;-56
2021/12/06 11:19:01;;;;;;;30.43;15.83;;;;;;;2.02;83.98;99178.98;1723933;81;21726;-57
2021/12/06 11:21:36;;;;;;;19.55;14.23;;;;;;;2.02;84.92;99178.53;1723572;80;21507;-56
2021/12/06 11:24:43;;;;;;;23.20;15.30;;;;;;;1.99;83.90;99168.19;1729476;80;21416;-55
2021/12/06 11:27:22;;;;;;;22.45;14.98;;;;;;;1.98;85.28;99164.32;1722584;80;21491;-56
2021/12/06 11:30:03;;;;;;;22.62;13.35;;;;;;;2.00;84.98;99169.03;1718365;80;21613;-56
2021/12/06 11:32:45;;;;;;;21.42;14.28;;;;;;;2.06;84.54;99163.78;1726522;80;21471;-57
2021/12/06 11:35:21;;;;;;;22.50;14.25;;;;;;;2.08;84.52;99157.67;1721978;81;21498;-54
2021/12/06 11:37:52;;;;;;;24.92;14.30;;;;;;;2.05;84.33;99159.02;1728280;82;21057;-59
2021/12/06 11:40:35;;;;;;;18.23;13.95;;;;;;;2.02;84.47;99151.75;1721991;81;21088;-57
2021/12/06 11:43:11;;;;;;;27.27;14.03;;;;;;;2.00;84.08;99143.98;1751624;80;21499;-56
2021/12/06 11:45:48;;;;;;;17.50;14.27;;;;;;;2.05;84.30;99149.93;1754881;80;21685;-57
2021/12/06 11:48:22;;;;;;;29.90;16.47;;;;;;;2.07;84.01;99151.21;1755000;80;21846;-58
2021/12/06 11:53:59;;;;;;;26.45;15.90;;;;;;;1.99;84.71;99149.19;1782965;78;23188;-58
2021/12/06 11:56:32;;;;;;;23.80;15.95;;;;;;;1.95;84.46;99154.41;1756914;80;21663;-58
2021/12/06 11:59:05;;;;;;;28.23;17.60;;;;;;;2.05;84.79;99162.90;1763357;80;22085;-57
2021/12/06 12:01:38;;;;;;;24.80;16.60;;;;;;;2.10;84.80;99168.88;1761198;80;21498;-57
2021/12/06 12:04:10;;;;;;;43.25;17.75;;;;;;;2.08;84.57;99159.42;1751126;80;21583;-58
2021/12/06 12:06:44;;;;;;;42.58;18.12;;;;;;;2.04;84.63;99149.98;1767030;80;21006;-57